Archival Weather

Snohomish County (Paine Fld)

Everett, Washington (KPAE)

Report from: Tuesday, November 7, 2023 6:53 AM PST
Current time: Monday, June 17, 2024 1:45 AM PDT

Current weather – Weather history – Daily summaries
Weather forecast

Present weatherLight rain
Temperature10.0°C (50.0°F)
Wind chill8.8°C (47.8°F)
Dew point7.2°C (45.0°F)
Winds 5 kts (2.6 m/s, 5.8 mph) Vrb
Winds variableWinds variable
Visibility9 mi. (14.5 km)
Clouds Ceiling: Broken clouds 1,600 ft. (488 m)
Broken clouds 2,000 ft. (610 m)
Overcast 3,600 ft. (1,097 m)
Altimeter29.92 in.Hg (1013 mB)
PrecipitiationTrace
Precip. events Rain began 2:51 PM
Precip last 3 hours0.08 in. (2 mm)
Relative humidity83 %
Density altitude-450 ft. (-137 m)
Sea-level pressure101.3 kPa (1013 mB, 29.92 in.Hg)
Remarks Automated weather observing station with precipitation discriminator
Pressure rising more quickly
Flight conditions Marginal Visual Meteorological Conditions
Raw dataKPAE 071453Z VRB05KT 9SM -RA BKN016 BKN020 OVC036 10/07 A2992 RMK AO2 RAB51 SLP132 P0000 60008 T01000072 53037
An error has occurred. This application may no longer respond until reloaded. Reload 🗙